Time;durP1;ratioP1;P1;durP2;ratioP2;P2;SDS_P1;SDS_P2;PMS_P1;PMS_P2;Temp;Humidity;BMP_temperature;BMP_pressure;BME280_temperature;BME280_humidity;BME280_pressure;Samples;Min_cycle;Max_cycle;Signal;HPM_P1;HPM_P2
2024/01/02 00:00:38;;;;;;;16.13;1.43;;;;;;;13.40;64.23;99912.03;5061434;28;20108;-74
2024/01/02 00:03:03;;;;;;;0.00;0.00;;;;;;;13.99;64.01;99904.59;5061606;28;20042;-75
2024/01/02 00:05:29;;;;;;;0.13;0.13;;;;;;;12.85;68.44;99898.22;5071498;28;20489;-74
2024/01/02 00:07:54;;;;;;;0.00;0.00;;;;;;;13.79;66.54;99884.34;5065643;28;20033;-74
2024/01/02 00:10:20;;;;;;;0.00;0.00;;;;;;;14.17;65.53;99868.00;5053523;28;20035;-75
2024/01/02 00:12:45;;;;;;;0.77;0.77;;;;;;;13.49;67.67;99867.97;5057251;28;20025;-75
2024/01/02 00:15:11;;;;;;;0.07;0.07;;;;;;;14.25;63.12;99852.78;5061661;28;20025;-75
2024/01/02 00:17:36;;;;;;;0.00;0.00;;;;;;;14.42;64.55;99829.28;5053985;28;20108;-74
2024/01/02 00:20:02;;;;;;;0.50;0.50;;;;;;;13.97;64.46;99817.13;5071614;28;20123;-75
2024/01/02 00:22:28;;;;;;;0.00;0.00;;;;;;;13.91;64.36;99799.81;5061795;28;20037;-76
2024/01/02 00:24:53;;;;;;;0.00;0.00;;;;;;;14.20;64.91;99786.41;5051216;28;20064;-75
2024/01/02 00:27:19;;;;;;;0.20;0.20;;;;;;;14.00;63.59;99780.22;5050806;28;20029;-74
2024/01/02 00:29:44;;;;;;;0.00;0.00;;;;;;;14.38;62.83;99769.00;5062720;28;20021;-75
2024/01/02 00:32:09;;;;;;;0.00;0.00;;;;;;;14.58;62.92;99765.53;5052669;28;20121;-75
2024/01/02 00:34:35;;;;;;;0.00;0.00;;;;;;;14.30;64.51;99766.72;5068459;28;20395;-75
2024/01/02 00:37:00;;;;;;;0.00;0.00;;;;;;;14.24;63.46;99761.72;5053902;28;20034;-75
2024/01/02 00:39:26;;;;;;;0.00;0.00;;;;;;;13.95;64.60;99758.53;5066475;28;20127;-75
2024/01/02 00:41:51;;;;;;;0.00;0.00;;;;;;;14.61;63.02;99733.00;5070039;28;20031;-75
2024/01/02 00:44:16;;;;;;;0.00;0.00;;;;;;;14.12;65.37;99741.19;5064300;28;20403;-75
2024/01/02 00:46:42;;;;;;;0.00;0.00;;;;;;;14.74;63.31;99721.88;5071570;28;20036;-75
2024/01/02 00:49:07;;;;;;;0.00;0.00;;;;;;;13.62;66.46;99719.59;5059839;28;20067;-75
2024/01/02 00:51:32;;;;;;;0.00;0.00;;;;;;;14.38;63.27;99696.28;5051238;28;20074;-75
2024/01/02 00:53:59;;;;;;;0.00;0.00;;;;;;;15.05;61.79;99675.72;5076627;28;20361;-75
2024/01/02 00:56:24;;;;;;;0.00;0.00;;;;;;;14.76;61.22;99674.47;5071795;28;20025;-75
2024/01/02 00:58:49;;;;;;;0.00;0.00;;;;;;;13.89;65.68;99672.09;5062795;28;20143;-75
2024/01/02 01:01:17;;;;;;;0.00;0.00;;;;;;;14.41;64.50;99654.06;5052107;28;20029;-75
2024/01/02 01:03:43;;;;;;;0.00;0.00;;;;;;;14.30;64.88;99645.81;5049940;28;20037;-75
2024/01/02 01:06:08;;;;;;;0.30;0.30;;;;;;;14.20;66.61;99631.34;5038093;28;20503;-75
2024/01/02 01:08:33;;;;;;;0.00;0.00;;;;;;;14.65;63.35;99627.59;5055106;28;20111;-76
2024/01/02 01:10:59;;;;;;;0.00;0.00;;;;;;;13.93;67.09;99625.53;5068969;28;20028;-75
2024/01/02 01:13:25;;;;;;;0.00;0.00;;;;;;;14.25;66.10;99613.63;5054139;28;20078;-75
2024/01/02 01:15:50;;;;;;;0.00;0.00;;;;;;;15.04;60.45;99600.38;5070115;28;20024;-74
2024/01/02 01:18:16;;;;;;;0.00;0.00;;;;;;;14.16;64.78;99579.84;5071347;28;20024;-75
2024/01/02 01:20:41;;;;;;;0.00;0.00;;;;;;;14.01;66.39;99571.75;5051873;28;20040;-75
2024/01/02 01:23:06;;;;;;;0.00;0.00;;;;;;;14.17;64.64;99557.91;5051452;28;20032;-75
2024/01/02 01:25:32;;;;;;;0.00;0.00;;;;;;;13.77;67.68;99539.53;5068404;28;20040;-75
2024/01/02 01:27:58;;;;;;;0.00;0.00;;;;;;;14.26;65.09;99533.84;5062497;28;20036;-75
2024/01/02 01:30:23;;;;;;;0.00;0.00;;;;;;;14.34;65.50;99531.72;5051381;28;20025;-75
2024/01/02 01:32:49;;;;;;;0.20;0.20;;;;;;;14.50;64.72;99520.50;5047187;28;20044;-75
2024/01/02 01:35:14;;;;;;;0.00;0.00;;;;;;;13.91;66.85;99512.66;5047864;28;20025;-75
2024/01/02 01:37:40;;;;;;;0.10;0.10;;;;;;;14.32;66.14;99507.28;5049045;28;20032;-76
2024/01/02 01:40:06;;;;;;;0.00;0.00;;;;;;;14.62;65.06;99504.13;5064239;28;20037;-76
2024/01/02 01:42:31;;;;;;;0.10;0.10;;;;;;;14.30;65.54;99497.75;5066230;28;21701;-76
2024/01/02 01:44:56;;;;;;;0.00;0.00;;;;;;;14.11;66.16;99489.88;5061623;28;20028;-76
2024/01/02 01:47:22;;;;;;;0.00;0.00;;;;;;;14.33;65.34;99481.84;5071764;28;20056;-76
2024/01/02 01:49:48;;;;;;;0.00;0.00;;;;;;;14.63;64.76;99461.16;5060093;28;20029;-76
2024/01/02 01:52:13;;;;;;;0.00;0.00;;;;;;;14.75;63.82;99452.69;5045784;28;20120;-76
2024/01/02 01:54:39;;;;;;;0.00;0.00;;;;;;;14.48;65.23;99440.81;5049168;28;20099;-77
2024/01/02 01:57:04;;;;;;;0.00;0.00;;;;;;;14.32;67.64;99428.44;5069536;28;20031;-77
2024/01/02 01:59:31;;;;;;;0.00;0.00;;;;;;;14.38;67.44;99424.66;5057583;28;20052;-76
2024/01/02 02:01:57;;;;;;;0.00;0.00;;;;;;;15.13;63.40;99406.09;5052616;28;20036;-76
2024/01/02 02:04:25;;;;;;;0.00;0.00;;;;;;;14.87;63.29;99409.13;5055756;28;20032;-76
2024/01/02 02:06:51;;;;;;;0.17;0.17;;;;;;;14.52;65.56;99397.69;5070081;28;20089;-76
2024/01/02 02:09:17;;;;;;;0.00;0.00;;;;;;;13.99;69.25;99376.56;5067199;28;20032;-77
2024/01/02 02:11:44;;;;;;;0.00;0.00;;;;;;;13.98;71.14;99377.47;5065913;28;20110;-76
2024/01/02 02:14:10;;;;;;;0.00;0.00;;;;;;;14.19;68.43;99380.88;5053187;28;20113;-76
2024/01/02 02:16:36;;;;;;;1.10;0.20;;;;;;;14.82;63.86;99373.44;5069877;28;20480;-76
2024/01/02 02:19:01;;;;;;;0.00;0.00;;;;;;;14.13;66.46;99375.06;5058719;28;20032;-76
2024/01/02 02:21:27;;;;;;;0.00;0.00;;;;;;;14.08;67.64;99357.72;5069803;28;20107;-76
2024/01/02 02:23:52;;;;;;;0.00;0.00;;;;;;;14.61;66.53;99344.66;5055703;28;20036;-77
2024/01/02 02:26:17;;;;;;;0.00;0.00;;;;;;;14.73;66.88;99333.53;5059814;28;20039;-76
2024/01/02 02:28:43;;;;;;;0.00;0.00;;;;;;;14.37;69.35;99312.53;5045999;28;20094;-77
2024/01/02 02:31:08;;;;;;;0.00;0.00;;;;;;;14.34;67.67;99318.84;5047861;28;20124;-77
2024/01/02 02:33:33;;;;;;;0.00;0.00;;;;;;;14.59;66.80;99309.72;5045713;28;20025;-77
2024/01/02 02:36:01;;;;;;;0.00;0.00;;;;;;;14.18;67.70;99286.34;5059740;28;20468;-77
2024/01/02 02:38:27;;;;;;;0.00;0.00;;;;;;;15.02;65.85;99275.94;5071456;28;20043;-77
2024/01/02 02:40:52;;;;;;;0.00;0.00;;;;;;;14.21;67.91;99273.06;5051857;28;20029;-76
2024/01/02 02:43:17;;;;;;;0.00;0.00;;;;;;;15.35;63.88;99267.16;5030212;28;20069;-76
2024/01/02 02:45:43;;;;;;;0.00;0.00;;;;;;;14.99;66.13;99269.97;5053813;28;20056;-76
2024/01/02 02:48:08;;;;;;;0.00;0.00;;;;;;;15.17;64.72;99241.84;5069772;28;20095;-76
2024/01/02 02:50:33;;;;;;;0.00;0.00;;;;;;;14.33;68.40;99230.38;5051164;28;20067;-75
2024/01/02 02:52:59;;;;;;;0.03;0.03;;;;;;;14.16;70.74;99228.59;5050287;28;20056;-75
2024/01/02 02:55:24;;;;;;;0.00;0.00;;;;;;;14.09;70.36;99237.72;5043819;28;20025;-75
2024/01/02 02:57:49;;;;;;;0.10;0.10;;;;;;;13.90;71.67;99235.16;5053113;28;20435;-75
2024/01/02 03:00:15;;;;;;;0.00;0.00;;;;;;;14.47;69.56;99215.69;5059720;28;20032;-75
2024/01/02 03:02:41;;;;;;;0.00;0.00;;;;;;;14.85;66.71;99210.19;5049321;28;20029;-76
2024/01/02 03:05:07;;;;;;;0.00;0.00;;;;;;;14.32;69.99;99209.44;5043547;28;20020;-76
2024/01/02 03:07:33;;;;;;;0.00;0.00;;;;;;;14.80;67.79;99183.31;5072746;28;20032;-76
2024/01/02 03:09:58;;;;;;;0.00;0.00;;;;;;;14.42;69.32;99197.50;5072791;28;20108;-75
2024/01/02 03:12:24;;;;;;;0.00;0.00;;;;;;;14.21;71.07;99189.81;5053506;28;20040;-75
2024/01/02 03:14:49;;;;;;;0.00;0.00;;;;;;;14.28;70.13;99192.13;5052514;28;20110;-75
2024/01/02 03:17:14;;;;;;;0.10;0.10;;;;;;;14.81;68.83;99177.97;5069973;28;20086;-75
2024/01/02 03:19:40;;;;;;;0.00;0.00;;;;;;;14.24;69.38;99160.72;5049198;28;20033;-75
2024/01/02 03:22:05;;;;;;;0.00;0.00;;;;;;;14.90;66.67;99160.84;5033709;28;20177;-75
2024/01/02 03:24:31;;;;;;;0.00;0.00;;;;;;;14.79;67.87;99155.31;5035393;28;20018;-75
2024/01/02 03:26:56;;;;;;;0.00;0.00;;;;;;;14.69;68.89;99173.38;5072613;28;20028;-75
2024/01/02 03:29:22;;;;;;;0.00;0.00;;;;;;;14.39;70.85;99156.47;5056895;28;20484;-75
2024/01/02 03:31:47;;;;;;;0.00;0.00;;;;;;;14.69;70.01;99150.53;5069173;28;20464;-74
2024/01/02 03:34:13;;;;;;;0.00;0.00;;;;;;;14.57;72.63;99148.53;5069964;28;20024;-74
2024/01/02 03:36:38;;;;;;;0.00;0.00;;;;;;;14.32;71.04;99139.31;5067862;28;20070;-74
2024/01/02 03:39:04;;;;;;;0.00;0.00;;;;;;;14.41;72.76;99133.59;5059879;28;20021;-75
2024/01/02 03:41:30;;;;;;;0.00;0.00;;;;;;;14.71;70.92;99125.03;5063502;28;20086;-74
2024/01/02 03:43:55;;;;;;;0.10;0.10;;;;;;;14.87;71.57;99140.81;5071953;28;20501;-74
2024/01/02 03:46:20;;;;;;;0.00;0.00;;;;;;;14.98;70.80;99148.09;5062287;28;20045;-74
2024/01/02 03:48:46;;;;;;;0.00;0.00;;;;;;;15.20;70.23;99141.66;5048719;28;20184;-74
2024/01/02 03:51:11;;;;;;;0.00;0.00;;;;;;;14.87;71.45;99139.97;5060319;28;20032;-74
2024/01/02 03:53:37;;;;;;;0.00;0.00;;;;;;;15.38;69.26;99111.66;5073150;28;20029;-74
2024/01/02 03:56:03;;;;;;;0.00;0.00;;;;;;;14.58;74.48;99116.06;5054600;28;20144;-74
2024/01/02 03:58:30;;;;;;;0.00;0.00;;;;;;;15.12;70.73;99122.81;5060380;28;20472;-74
2024/01/02 04:00:56;;;;;;;0.00;0.00;;;;;;;15.30;71.07;99105.97;5058329;28;20107;-73
2024/01/02 04:03:21;;;;;;;0.00;0.00;;;;;;;14.90;72.49;99108.22;5071851;28;20539;-74
2024/01/02 04:05:47;;;;;;;0.00;0.00;;;;;;;14.91;75.46;99092.34;5056017;28;20396;-74
2024/01/02 04:08:12;;;;;;;0.30;0.30;;;;;;;15.73;70.74;99092.97;5073201;28;20506;-74
2024/01/02 04:10:39;;;;;;;2.73;1.07;;;;;;;15.20;73.19;99095.13;5070427;28;20028;-74
2024/01/02 04:13:04;;;;;;;0.00;0.00;;;;;;;15.78;70.47;99095.31;5052137;28;20545;-74
2024/01/02 04:15:30;;;;;;;0.00;0.00;;;;;;;15.49;72.86;99099.69;5053621;28;20025;-75
2024/01/02 04:17:55;;;;;;;0.00;0.00;;;;;;;15.16;74.27;99098.03;5067324;28;20029;-74
2024/01/02 04:20:21;;;;;;;0.00;0.00;;;;;;;16.13;71.19;99089.78;5052011;28;20396;-74
2024/01/02 04:22:46;;;;;;;0.00;0.00;;;;;;;15.62;72.59;99095.41;5052515;28;20415;-74
2024/01/02 04:25:12;;;;;;;0.00;0.00;;;;;;;15.94;72.18;99095.31;5049595;28;20164;-75
2024/01/02 04:27:37;;;;;;;0.00;0.00;;;;;;;15.29;75.80;99088.50;5052495;28;20469;-74
2024/01/02 04:30:03;;;;;;;0.00;0.00;;;;;;;16.44;69.74;99072.91;5052131;28;20477;-74
2024/01/02 04:32:29;;;;;;;0.00;0.00;;;;;;;16.17;71.15;99075.47;5064694;28;20431;-74
2024/01/02 04:34:54;;;;;;;0.00;0.00;;;;;;;15.18;78.33;99086.50;5072911;28;20169;-74
2024/01/02 04:37:20;;;;;;;0.00;0.00;;;;;;;16.43;76.26;99073.84;5067906;28;20369;-74
2024/01/02 04:39:45;;;;;;;0.00;0.00;;;;;;;15.58;79.68;99072.81;5051901;28;20400;-74
2024/01/02 04:42:11;;;;;;;0.00;0.00;;;;;;;15.59;81.23;99071.84;5053026;28;20028;-74
2024/01/02 04:44:36;;;;;;;0.00;0.00;;;;;;;15.89;77.85;99094.72;5070686;28;20040;-74
2024/01/02 04:47:02;;;;;;;0.00;0.00;;;;;;;15.74;79.60;99083.28;5061084;28;20075;-74
2024/01/02 04:49:28;;;;;;;0.00;0.00;;;;;;;15.49;80.02;99083.88;5047004;28;20025;-74
2024/01/02 04:51:54;;;;;;;0.00;0.00;;;;;;;15.93;77.50;99093.59;5052963;28;20033;-74
2024/01/02 04:54:19;;;;;;;0.00;0.00;;;;;;;15.95;77.62;99110.19;5053531;28;20393;-74
2024/01/02 04:56:44;;;;;;;0.00;0.00;;;;;;;16.37;73.20;99091.84;5053162;28;20036;-74
2024/01/02 04:59:10;;;;;;;0.00;0.00;;;;;;;17.12;71.49;99084.47;5052112;28;20060;-74
2024/01/02 05:01:37;;;;;;;0.00;0.00;;;;;;;17.19;69.00;99078.81;5049844;28;20120;-74
2024/01/02 05:04:03;;;;;;;0.00;0.00;;;;;;;16.55;72.32;99090.69;5050868;28;20032;-74
2024/01/02 05:06:29;;;;;;;0.00;0.00;;;;;;;16.29;74.19;99087.03;5051966;28;20033;-74
2024/01/02 05:08:54;;;;;;;0.00;0.00;;;;;;;16.16;77.88;99083.47;5070189;28;20028;-75
2024/01/02 05:11:20;;;;;;;0.00;0.00;;;;;;;16.32;77.46;99088.63;5057725;28;20037;-74
2024/01/02 05:13:45;;;;;;;0.00;0.00;;;;;;;16.83;72.69;99099.53;5059725;28;20025;-74
2024/01/02 05:16:12;;;;;;;0.00;0.00;;;;;;;17.38;71.43;99095.13;5049141;28;20052;-74
2024/01/02 05:18:37;;;;;;;0.00;0.00;;;;;;;17.19;72.51;99095.47;5066774;28;20036;-75
2024/01/02 05:21:03;;;;;;;0.10;0.10;;;;;;;16.84;74.82;99089.81;5058232;28;20039;-74
2024/01/02 05:23:29;;;;;;;0.00;0.00;;;;;;;17.07;72.03;99097.13;5065722;28;20051;-74
2024/01/02 05:25:55;;;;;;;0.00;0.00;;;;;;;16.91;73.93;99101.69;5070252;28;20032;-74
2024/01/02 05:28:21;;;;;;;0.30;0.20;;;;;;;17.42;71.71;99101.91;5055924;28;20064;-74
2024/01/02 05:30:46;;;;;;;0.07;0.07;;;;;;;17.32;71.19;99113.16;5051012;28;20048;-74
2024/01/02 05:33:12;;;;;;;0.00;0.00;;;;;;;17.94;68.97;99107.31;5061907;28;20045;-74
2024/01/02 05:35:37;;;;;;;0.00;0.00;;;;;;;17.96;69.55;99106.25;5059082;28;20032;-74
2024/01/02 05:38:03;;;;;;;0.00;0.00;;;;;;;17.28;76.57;99118.66;5060304;28;20105;-74
2024/01/02 05:40:31;;;;;;;0.00;0.00;;;;;;;17.12;74.49;99126.72;5050609;28;20065;-73
2024/01/02 05:42:57;;;;;;;0.00;0.00;;;;;;;17.42;73.95;99120.38;5059920;28;20032;-74
2024/01/02 05:45:22;;;;;;;0.00;0.00;;;;;;;17.37;76.90;99116.38;5057383;28;20029;-74
2024/01/02 05:47:47;;;;;;;0.00;0.00;;;;;;;17.30;75.58;99129.13;5049202;28;20160;-73
2024/01/02 05:50:15;;;;;;;0.00;0.00;;;;;;;17.88;72.85;99123.56;5050377;28;20061;-73
2024/01/02 05:52:43;;;;;;;0.00;0.00;;;;;;;17.42;73.72;99125.66;5055869;28;20028;-73
2024/01/02 05:55:09;;;;;;;0.00;0.00;;;;;;;18.08;71.82;99138.94;5063150;28;20492;-73
2024/01/02 05:57:35;;;;;;;0.00;0.00;;;;;;;17.85;70.83;99132.53;5054988;28;20028;-73
2024/01/02 06:00:00;;;;;;;0.00;0.00;;;;;;;17.46;73.57;99134.22;5057932;28;20036;-73
2024/01/02 06:02:25;;;;;;;0.00;0.00;;;;;;;18.18;69.17;99148.91;5050213;28;20055;-73
2024/01/02 06:04:51;;;;;;;0.00;0.00;;;;;;;18.63;66.41;99146.66;5047672;28;20444;-74
2024/01/02 06:07:16;;;;;;;0.00;0.00;;;;;;;18.10;69.71;99163.47;5051651;28;20041;-74
2024/01/02 06:09:41;;;;;;;0.00;0.00;;;;;;;17.83;72.57;99157.38;5070022;28;20484;-73
2024/01/02 06:12:08;;;;;;;0.00;0.00;;;;;;;17.53;73.93;99166.38;5067854;28;20495;-73
2024/01/02 06:14:33;;;;;;;13.60;0.57;;;;;;;17.86;71.79;99162.44;5049459;28;20082;-73
2024/01/02 06:16:59;;;;;;;0.00;0.00;;;;;;;18.25;67.83;99164.22;5049453;28;20522;-73
2024/01/02 06:19:24;;;;;;;0.30;0.30;;;;;;;18.02;68.99;99162.31;5059421;28;20554;-73
2024/01/02 06:21:50;;;;;;;0.87;0.87;;;;;;;18.23;67.13;99171.44;5050155;28;20340;-73
2024/01/02 06:24:16;;;;;;;0.63;0.50;;;;;;;17.75;70.29;99179.88;5046819;28;20037;-73
2024/01/02 06:26:41;;;;;;;0.00;0.00;;;;;;;18.15;67.06;99179.03;5028247;28;20021;-72
2024/01/02 06:29:07;;;;;;;0.23;0.23;;;;;;;17.61;68.46;99201.91;5057305;28;20395;-72
2024/01/02 06:31:32;;;;;;;0.00;0.00;;;;;;;17.86;69.04;99189.75;5047943;28;20040;-73
2024/01/02 06:33:57;;;;;;;0.20;0.20;;;;;;;17.42;71.58;99196.97;5053874;28;20030;-73
2024/01/02 06:36:23;;;;;;;0.00;0.00;;;;;;;17.89;68.50;99193.97;5050342;28;20032;-73
2024/01/02 06:38:48;;;;;;;0.00;0.00;;;;;;;18.11;67.41;99198.72;5059788;28;20428;-73
2024/01/02 06:41:14;;;;;;;0.00;0.00;;;;;;;18.61;64.80;99196.19;5050613;28;20025;-73
2024/01/02 06:43:39;;;;;;;0.00;0.00;;;;;;;18.41;65.48;99206.34;5046761;28;20033;-72
2024/01/02 06:46:04;;;;;;;0.00;0.00;;;;;;;18.30;65.45;99200.97;5028362;28;20587;-72
2024/01/02 06:48:30;;;;;;;0.00;0.00;;;;;;;17.80;68.92;99206.00;5041579;28;20053;-71
2024/01/02 06:50:56;;;;;;;0.13;0.13;;;;;;;18.48;66.30;99212.91;5052004;28;20048;-72
2024/01/02 06:53:22;;;;;;;0.00;0.00;;;;;;;18.54;62.72;99210.81;5053397;28;20032;-72
2024/01/02 06:55:47;;;;;;;0.00;0.00;;;;;;;18.61;63.77;99217.34;5068476;28;20021;-72
2024/01/02 06:58:12;;;;;;;2.53;1.43;;;;;;;18.40;64.62;99214.41;5067811;28;20024;-72
2024/01/02 07:00:38;;;;;;;0.00;0.00;;;;;;;18.72;63.02;99220.09;5052462;28;20436;-72
2024/01/02 07:03:04;;;;;;;0.00;0.00;;;;;;;17.60;69.11;99225.81;5065612;28;20057;-72
2024/01/02 07:05:30;;;;;;;2.73;2.47;;;;;;;18.59;62.59;99224.56;5048402;28;20021;-72
2024/01/02 07:07:56;;;;;;;0.00;0.00;;;;;;;17.60;65.51;99231.09;5048594;28;20488;-72
2024/01/02 07:10:21;;;;;;;3.60;0.53;;;;;;;18.71;63.97;99226.38;5068692;28;20036;-72
2024/01/02 07:12:47;;;;;;;0.77;0.70;;;;;;;17.73;66.59;99242.53;5062569;28;20455;-72
2024/01/02 07:15:12;;;;;;;0.10;0.10;;;;;;;18.04;65.29;99240.56;5057326;28;20028;-72
2024/01/02 07:17:37;;;;;;;0.17;0.17;;;;;;;18.84;62.63;99244.03;5049403;28;20037;-72
2024/01/02 07:20:03;;;;;;;4.60;1.60;;;;;;;19.13;59.21;99245.50;5077529;28;20032;-73
2024/01/02 07:22:29;;;;;;;0.00;0.00;;;;;;;18.29;63.31;99254.78;5046806;28;20052;-72
2024/01/02 07:24:55;;;;;;;0.10;0.10;;;;;;;18.67;61.98;99259.28;5062285;28;20024;-72
2024/01/02 07:27:21;;;;;;;0.00;0.00;;;;;;;18.11;63.43;99263.00;5065535;28;20469;-73
2024/01/02 07:29:47;;;;;;;0.00;0.00;;;;;;;18.32;62.81;99270.44;5046239;28;20029;-72
2024/01/02 07:32:12;;;;;;;0.00;0.00;;;;;;;18.14;63.11;99273.34;5049977;28;20032;-72
2024/01/02 07:34:37;;;;;;;0.00;0.00;;;;;;;18.01;63.41;99285.72;5053166;28;20100;-73
2024/01/02 07:37:03;;;;;;;0.10;0.10;;;;;;;18.40;61.51;99280.53;5050617;28;20036;-73
2024/01/02 07:39:29;;;;;;;0.00;0.00;;;;;;;18.72;61.48;99278.31;5057688;28;20112;-73
2024/01/02 07:41:54;;;;;;;0.73;0.73;;;;;;;18.31;62.02;99292.53;5051324;28;20063;-72
2024/01/02 07:44:21;;;;;;;4.17;0.63;;;;;;;18.40;62.15;99286.66;5058025;28;20059;-73
2024/01/02 07:46:47;;;;;;;0.00;0.00;;;;;;;18.60;61.56;99284.44;5052771;28;20440;-73
2024/01/02 07:49:12;;;;;;;0.00;0.00;;;;;;;19.26;58.04;99281.69;5075379;28;20178;-72
2024/01/02 07:51:38;;;;;;;2.23;1.10;;;;;;;19.07;59.33;99282.16;5060466;28;20034;-71
2024/01/02 07:54:03;;;;;;;0.00;0.00;;;;;;;18.59;60.83;99282.78;5052075;28;20090;-73
2024/01/02 07:56:30;;;;;;;0.00;0.00;;;;;;;18.53;60.22;99277.88;5053276;28;20052;-73
2024/01/02 07:58:56;;;;;;;0.00;0.00;;;;;;;19.62;57.46;99272.09;5055821;28;20024;-74
2024/01/02 08:01:22;;;;;;;0.00;0.00;;;;;;;19.52;56.69;99271.06;5073222;28;20424;-74
2024/01/02 08:03:47;;;;;;;0.50;0.47;;;;;;;18.65;58.97;99271.75;5055156;28;20028;-74
2024/01/02 08:06:13;;;;;;;5.20;1.90;;;;;;;19.91;55.05;99264.69;5075307;28;20028;-74
2024/01/02 08:08:38;;;;;;;0.00;0.00;;;;;;;19.86;56.29;99269.47;5065943;28;20071;-74
2024/01/02 08:11:04;;;;;;;0.10;0.10;;;;;;;19.28;56.82;99258.63;5059096;28;20025;-74
2024/01/02 08:13:29;;;;;;;0.00;0.00;;;;;;;19.61;56.37;99265.94;5050541;28;20021;-75
2024/01/02 08:15:55;;;;;;;5.45;2.20;;;;;;;19.49;54.90;99254.44;5053838;28;20402;-74
2024/01/02 08:18:20;;;;;;;0.00;0.00;;;;;;;19.34;55.82;99263.47;5050867;28;20077;-75
2024/01/02 08:20:46;;;;;;;0.20;0.20;;;;;;;18.71;58.16;99259.91;5071731;28;20032;-74
2024/01/02 08:23:12;;;;;;;0.00;0.00;;;;;;;19.01;56.49;99259.59;5071405;28;20025;-74
2024/01/02 08:25:39;;;;;;;0.00;0.00;;;;;;;19.40;55.91;99246.28;5052771;28;20036;-74
2024/01/02 08:28:06;;;;;;;1.37;0.53;;;;;;;18.77;57.00;99244.44;5050330;28;20017;-74
2024/01/02 08:30:31;;;;;;;0.00;0.00;;;;;;;18.79;56.72;99247.84;5066075;28;20070;-73
2024/01/02 08:32:57;;;;;;;0.00;0.00;;;;;;;19.68;54.78;99239.84;5053671;28;20397;-74
2024/01/02 08:35:23;;;;;;;0.00;0.00;;;;;;;18.79;56.52;99239.91;5057840;28;20032;-73
2024/01/02 08:37:49;;;;;;;0.00;0.00;;;;;;;18.58;57.92;99236.09;5047536;28;20269;-74
2024/01/02 08:40:14;;;;;;;0.00;0.00;;;;;;;18.64;58.24;99238.31;5062618;28;20021;-74
2024/01/02 08:42:41;;;;;;;3.40;2.20;;;;;;;18.72;57.59;99238.63;5055597;28;20036;-74
2024/01/02 08:45:09;;;;;;;0.47;0.47;;;;;;;18.90;57.09;99244.47;5053859;28;20074;-73
2024/01/02 08:47:36;;;;;;;0.00;0.00;;;;;;;18.36;59.74;99237.56;5024098;28;20032;-73
2024/01/02 08:50:01;;;;;;;0.00;0.00;;;;;;;18.17;61.18;99239.75;5037995;28;20170;-73
2024/01/02 08:52:27;;;;;;;3.30;1.70;;;;;;;18.08;60.01;99244.69;5050250;28;20647;-73
2024/01/02 08:54:52;;;;;;;0.00;0.00;;;;;;;18.50;59.06;99249.84;5075226;28;20500;-73
2024/01/02 08:57:17;;;;;;;0.00;0.00;;;;;;;18.12;61.81;99246.19;5050430;28;20032;-74
2024/01/02 08:59:43;;;;;;;0.00;0.00;;;;;;;18.02;60.80;99252.19;5049823;28;20108;-73
2024/01/02 09:02:09;;;;;;;0.00;0.00;;;;;;;18.51;60.17;99242.75;5051764;28;20389;-74
2024/01/02 09:04:35;;;;;;;1.13;1.13;;;;;;;17.70;63.33;99234.81;5054363;28;20111;-74
2024/01/02 09:07:00;;;;;;;0.00;0.00;;;;;;;18.12;62.67;99227.69;5058409;28;20112;-74
2024/01/02 09:09:25;;;;;;;1.30;0.28;;;;;;;17.64;64.20;99227.28;5050235;28;20032;-73
2024/01/02 09:11:51;;;;;;;0.00;0.00;;;;;;;18.01;65.09;99234.63;5047520;28;20450;-74
2024/01/02 09:14:16;;;;;;;0.00;0.00;;;;;;;17.48;67.09;99231.88;5050436;28;20025;-74
2024/01/02 09:16:43;;;;;;;0.33;0.33;;;;;;;18.08;64.93;99236.78;5038200;28;20477;-74
2024/01/02 09:19:09;;;;;;;0.00;0.00;;;;;;;18.75;62.07;99230.50;5049244;28;20025;-74
2024/01/02 09:21:34;;;;;;;0.00;0.00;;;;;;;17.80;66.27;99233.28;5044821;28;20025;-73
2024/01/02 09:23:59;;;;;;;0.00;0.00;;;;;;;18.59;64.20;99227.22;5036452;28;20021;-74
2024/01/02 09:26:25;;;;;;;0.00;0.00;;;;;;;18.13;64.86;99226.75;5068308;28;20149;-75
2024/01/02 09:28:51;;;;;;;0.00;0.00;;;;;;;18.21;67.11;99235.94;5049421;28;20035;-75
2024/01/02 09:31:18;;;;;;;0.00;0.00;;;;;;;19.54;59.11;99237.34;5067790;28;20028;-75
2024/01/02 09:33:44;;;;;;;0.00;0.00;;;;;;;19.82;58.74;99231.75;5047317;28;20033;-75
2024/01/02 09:36:10;;;;;;;23.58;4.85;;;;;;;19.25;59.16;99237.66;5053946;28;20392;-75
2024/01/02 09:38:39;;;;;;;0.23;0.23;;;;;;;19.50;58.79;99236.72;5049923;28;20412;-75
2024/01/02 09:41:29;;;;;;;0.90;0.63;;;;;;;19.79;58.09;99237.22;5065247;28;20028;-75
2024/01/02 09:43:57;;;;;;;0.00;0.00;;;;;;;18.13;65.12;99247.03;5049642;28;20040;-75
2024/01/02 09:46:36;;;;;;;0.15;0.15;;;;;;;19.40;59.53;99240.97;5056355;28;20060;-75
2024/01/02 09:49:27;;;;;;;31.45;3.35;;;;;;;19.46;59.43;99236.09;5049469;28;20051;-74
2024/01/02 09:52:22;;;;;;;21.13;2.63;;;;;;;19.92;57.15;99239.00;5064815;28;20037;-75
2024/01/02 09:54:53;;;;;;;19.80;3.42;;;;;;;20.01;56.74;99235.69;5065507;28;20035;-74
2024/01/02 09:57:41;;;;;;;19.52;2.95;;;;;;;19.50;57.71;99231.44;5053922;28;20070;-75
2024/01/02 10:00:18;;;;;;;21.63;3.97;;;;;;;19.90;57.01;99228.53;5054013;28;20503;-75
2024/01/02 10:02:55;;;;;;;18.98;2.63;;;;;;;19.81;56.80;99224.75;5068843;28;20025;-75
2024/01/02 10:05:43;;;;;;;17.58;3.17;;;;;;;19.98;56.84;99220.00;5064785;28;20040;-75
2024/01/02 10:08:35;;;;;;;17.00;2.35;;;;;;;19.48;57.91;99228.88;5033375;28;20030;-74
2024/01/02 10:11:26;;;;;;;16.63;2.40;;;;;;;18.23;64.02;99219.03;5051196;28;20058;-75
2024/01/02 10:14:02;;;;;;;15.68;1.98;;;;;;;19.16;59.54;99223.25;5069299;28;20067;-75
2024/01/02 10:16:34;;;;;;;9.30;1.73;;;;;;;19.45;58.82;99223.81;5052416;28;20468;-75
2024/01/02 10:19:40;;;;;;;10.88;1.55;;;;;;;19.43;58.35;99228.38;5038168;28;20086;-75
2024/01/02 10:22:32;;;;;;;16.67;1.63;;;;;;;19.01;59.84;99214.59;5063322;28;20025;-75
2024/01/02 10:25:10;;;;;;;12.63;2.08;;;;;;;19.59;58.50;99208.69;5060754;28;20029;-75
2024/01/02 10:28:17;;;;;;;10.68;1.48;;;;;;;18.67;61.03;99209.00;5060803;28;20040;-74
2024/01/02 10:31:15;;;;;;;6.63;1.40;;;;;;;19.80;58.48;99196.53;5048492;28;20044;-75
2024/01/02 10:34:19;;;;;;;15.27;2.03;;;;;;;20.39;56.66;99191.28;5048276;28;20072;-75
2024/01/02 10:36:54;;;;;;;7.68;1.23;;;;;;;19.86;56.48;99189.09;5048626;28;20025;-74
2024/01/02 10:39:29;;;;;;;6.15;2.05;;;;;;;19.37;59.72;99178.50;5044829;28;20053;-75
2024/01/02 10:42:27;;;;;;;3.03;0.73;;;;;;;19.17;60.14;99184.38;5042125;28;20025;-74
2024/01/02 10:45:12;;;;;;;9.30;1.90;;;;;;;19.91;57.71;99171.88;5024619;28;20068;-73
2024/01/02 10:47:46;;;;;;;1.75;1.02;;;;;;;19.27;60.70;99180.94;5030045;28;20102;-73
2024/01/02 10:50:23;;;;;;;6.63;1.85;;;;;;;18.87;61.03;99164.41;5030740;28;20080;-74
2024/01/02 10:53:06;;;;;;;4.78;1.35;;;;;;;19.64;59.72;99142.97;5060606;28;20064;-74
2024/01/02 10:55:58;;;;;;;;;;;;;;;20.03;56.92;99148.91;5052934;28;20025;-73
2024/01/02 10:58:24;;;;;;;6.47;1.88;;;;;;;19.54;60.07;99144.63;5046991;28;19917;-74
2024/01/02 11:01:09;;;;;;;3.53;2.00;;;;;;;19.40;61.12;99133.22;5049271;28;20381;-74
2024/01/02 11:03:45;;;;;;;8.10;2.33;;;;;;;20.00;59.15;99139.38;5048841;28;20518;-74
2024/01/02 11:06:17;;;;;;;4.60;2.92;;;;;;;19.70;59.76;99126.63;5070626;28;20031;-74
2024/01/02 11:09:01;;;;;;;0.22;0.22;;;;;;;20.48;57.21;99125.09;5052198;28;20036;-74
2024/01/02 11:11:29;;;;;;;0.00;0.00;;;;;;;19.50;59.90;99120.97;5060406;28;20032;-74
2024/01/02 11:13:56;;;;;;;0.00;0.00;;;;;;;19.80;59.78;99118.84;5067810;28;20086;-74
2024/01/02 11:16:25;;;;;;;0.00;0.00;;;;;;;20.02;58.92;99110.09;5061295;28;20024;-74
2024/01/02 11:18:55;;;;;;;0.00;0.00;;;;;;;19.97;59.56;99112.25;5058111;28;20037;-77
2024/01/02 11:21:45;;;;;;;0.00;0.00;;;;;;;19.59;60.07;99110.66;5058168;28;20082;-75
2024/01/02 11:24:16;;;;;;;0.10;0.10;;;;;;;20.38;58.11;99099.41;5073107;28;20046;-76
2024/01/02 11:26:45;;;;;;;0.00;0.00;;;;;;;19.93;58.42;99089.56;5069387;28;20111;-76
2024/01/02 11:29:22;;;;;;;0.00;0.00;;;;;;;19.56;61.23;99087.88;5050557;28;20500;-77
2024/01/02 11:31:49;;;;;;;1.38;0.55;;;;;;;19.57;60.19;99094.03;5062738;28;20033;-75
2024/01/02 11:34:23;;;;;;;0.00;0.00;;;;;;;18.97;64.19;99088.69;5054640;28;20032;-76
2024/01/02 11:36:55;;;;;;;0.00;0.00;;;;;;;18.96;64.03;99079.06;5063929;28;20158;-79